createdAt,value
2022-12-03T00:09:29.945Z,94.90
2022-12-03T00:19:35.745Z,94.96
2022-12-03T00:29:41.594Z,95.05
2022-12-03T00:39:45.867Z,95.20
2022-12-03T00:49:51.739Z,95.41
2022-12-03T00:59:57.299Z,95.62
2022-12-03T01:10:02.875Z,95.75
2022-12-03T01:20:10.959Z,95.85
2022-12-03T01:30:17.248Z,95.84
2022-12-03T01:40:24.092Z,95.79
2022-12-03T01:50:34.188Z,95.83
2022-12-03T02:00:40.369Z,95.98
2022-12-03T02:10:46.460Z,96.13
2022-12-03T02:20:54.575Z,96.19
2022-12-03T02:31:00.229Z,96.03
2022-12-03T02:41:09.210Z,96.01
2022-12-03T02:51:14.859Z,95.97
2022-12-03T03:01:20.702Z,95.90
2022-12-03T03:11:26.932Z,95.87
2022-12-03T03:21:31.007Z,95.98
2022-12-03T03:31:37.276Z,95.79
2022-12-03T03:41:46.014Z,95.84
2022-12-03T03:51:51.989Z,95.81
2022-12-03T04:01:57.657Z,95.76
2022-12-03T04:12:20.625Z,95.80
2022-12-03T04:22:41.363Z,95.87
2022-12-03T04:33:04.378Z,95.92
2022-12-03T04:43:09.999Z,96.04
2022-12-03T04:53:15.847Z,96.05
2022-12-03T05:03:21.503Z,96.07
2022-12-03T05:13:27.123Z,95.95
2022-12-03T05:23:32.724Z,95.80
2022-12-03T05:33:43.772Z,95.73
2022-12-03T05:43:49.994Z,95.68
2022-12-03T05:53:55.698Z,95.53
2022-12-03T06:04:01.400Z,95.80
2022-12-03T06:14:07.072Z,95.71
2022-12-03T06:24:12.649Z,95.66
2022-12-03T06:34:18.263Z,95.75
2022-12-03T06:44:24.012Z,95.73
2022-12-03T06:54:29.635Z,95.94
2022-12-03T07:04:35.316Z,95.91
2022-12-03T07:14:41.142Z,96.09
2022-12-03T07:24:47.058Z,96.33
2022-12-03T07:34:52.913Z,96.23
2022-12-03T07:44:58.910Z,96.34
2022-12-03T07:55:04.653Z,95.83
2022-12-03T08:05:11.509Z,95.34
2022-12-03T08:15:19.108Z,94.92
2022-12-03T08:25:26.368Z,94.63
2022-12-03T08:35:33.880Z,94.83
2022-12-03T08:45:42.547Z,94.34
2022-12-03T08:55:51.654Z,93.90
2022-12-03T09:05:57.262Z,93.20
2022-12-03T09:16:02.795Z,92.98
2022-12-03T09:26:08.628Z,92.71
2022-12-03T09:36:14.322Z,92.48
2022-12-03T09:46:21.272Z,91.96
2022-12-03T09:56:26.911Z,91.71
2022-12-03T10:06:33.006Z,91.61
2022-12-03T10:16:40.466Z,91.12
2022-12-03T10:26:48.317Z,90.58
2022-12-03T10:37:12.305Z,90.54
2022-12-03T10:47:18.533Z,90.70
2022-12-03T10:57:25.714Z,91.03
2022-12-03T11:07:32.141Z,91.60
2022-12-03T11:17:49.931Z,91.67
2022-12-03T11:28:26.509Z,91.79
2022-12-03T11:38:53.757Z,91.87
2022-12-03T11:49:01.716Z,91.96
2022-12-03T11:59:14.668Z,91.95
2022-12-03T12:09:54.786Z,92.39
2022-12-03T12:20:23.513Z,92.48
2022-12-03T12:30:29.243Z,92.62
2022-12-03T12:40:36.408Z,93.14
2022-12-03T12:50:44.074Z,93.46
2022-12-03T13:00:52.788Z,93.63
2022-12-03T13:10:59.948Z,93.70
2022-12-03T13:21:30.709Z,94.36
2022-12-03T13:31:43.515Z,94.39
2022-12-03T13:42:07.856Z,94.56
2022-12-03T13:52:20.353Z,94.83
2022-12-03T14:02:26.011Z,94.93
2022-12-03T14:12:33.885Z,95.42
2022-12-03T14:22:40.037Z,95.76
2022-12-03T14:32:46.029Z,96.01
2022-12-03T14:42:51.803Z,96.36
2022-12-03T14:52:57.416Z,96.67
2022-12-03T15:03:03.160Z,96.92
2022-12-03T15:13:08.848Z,97.21
2022-12-03T15:23:14.914Z,97.59
2022-12-03T15:33:21.041Z,97.60
2022-12-03T15:43:26.808Z,97.85
2022-12-03T15:53:32.473Z,98.10
2022-12-03T16:03:38.329Z,98.53
2022-12-03T16:13:43.975Z,98.83
2022-12-03T16:23:49.632Z,98.98
2022-12-03T16:33:55.332Z,99.43
2022-12-03T16:44:02.675Z,99.54
2022-12-03T16:54:08.496Z,99.86
2022-12-03T17:04:14.168Z,99.96
2022-12-03T17:14:19.809Z,99.91
2022-12-03T17:24:25.411Z,99.99
2022-12-03T17:34:31.085Z,100.00
2022-12-03T17:44:37.205Z,100.00
2022-12-03T17:55:09.237Z,100.00
2022-12-03T18:05:09.238Z,100.00
2022-12-03T18:15:15.079Z,100.00
2022-12-03T18:25:21.526Z,100.00
2022-12-03T18:35:27.196Z,100.00
2022-12-03T18:45:32.809Z,100.00
2022-12-03T18:55:38.510Z,100.00
2022-12-03T19:05:44.984Z,100.00
2022-12-03T19:15:50.485Z,100.00
2022-12-03T19:26:01.330Z,100.00
2022-12-03T19:36:18.728Z,100.00
2022-12-03T19:46:26.135Z,100.00
2022-12-03T19:56:32.081Z,100.00
2022-12-03T20:06:39.590Z,100.00
2022-12-03T20:16:46.147Z,100.00
2022-12-03T20:26:50.292Z,100.00
2022-12-03T20:36:55.896Z,100.00
2022-12-03T20:47:01.596Z,100.00
2022-12-03T20:57:07.315Z,100.00
2022-12-03T21:07:12.892Z,100.00
2022-12-03T21:17:19.047Z,100.00
2022-12-03T21:27:24.699Z,100.00
2022-12-03T21:37:30.461Z,100.00
2022-12-03T21:47:37.518Z,100.00
2022-12-03T21:57:43.323Z,100.00
2022-12-03T22:07:49.347Z,100.00
2022-12-03T22:17:55.398Z,100.00
2022-12-03T22:28:01.134Z,100.00
2022-12-03T22:38:06.934Z,100.00
2022-12-03T22:48:13.164Z,100.00
2022-12-03T22:58:18.933Z,100.00
2022-12-03T23:08:25.068Z,100.00
2022-12-03T23:18:31.166Z,100.00
2022-12-03T23:28:39.249Z,100.00
2022-12-03T23:38:45.656Z,100.00
2022-12-03T23:48:51.881Z,100.00
2022-12-03T23:58:59.054Z,100.00
